Celina Star — D5GB9 — position and weather

sailwx.info

Track history (hours):
 
Tides and Currents Weather Stations Pressure Air Temp Water Temp Dewpoint Dewpoint Depression Visibility Wind Speed Wind Dir Waves Ship Positions

Celina Star

Last reported at 2018-Feb-18 13:13 UTC. Time now 2018-Feb-23 04:24 UTC.
Position S 32°36' W 071°52'.

Length 243 m; draft 8.5 m.

Type: Cargo ship. MMSI: 636016415.

Date/timePositionNaut miles runAvg speedWind from/ knotsBaromVisibWave heightAir tempDewpointWater temp
2018-Feb-18 13:13S 32°36' W 071°52'313.4
2018-Feb-18 13:00S 32°39' W 071°52'713.3
2018-Feb-18 12:30S 32°46' W 071°52'713.2
2018-Feb-18 11:59S 32°53' W 071°52'613.1
2018-Feb-18 11:30S 32°59' W 071°52'612.7
2018-Feb-18 11:00S 33°05' W 071°51'6 0.3
2018-Feb-17 12:45S 32°59' W 071°50'718.7
2018-Feb-17 12:22S 32°52' W 071°52'718.9
2018-Feb-17 12:00S 32°45' W 071°53'  
Track history (hours):
 
Tides and Currents Weather Stations Pressure Air Temp Water Temp Dewpoint Dewpoint Depression Visibility Wind Speed Wind Dir Waves Ship Positions

Celina Star

Last reported at 2018-Feb-18 13:13 UTC. Time now 2018-Feb-23 04:24 UTC.
Position S 32°36' W 071°52'.

Length 243 m; draft 8.5 m.

Type: Cargo ship. MMSI: 636016415.

Date/timePositionNaut miles runAvg speedWind from/ knotsBaromVisibWave heightAir tempDewpointWater temp
2018-Feb-18 13:13S 32°36' W 071°52'313.4
2018-Feb-18 13:00S 32°39' W 071°52'713.3
2018-Feb-18 12:30S 32°46' W 071°52'713.2
2018-Feb-18 11:59S 32°53' W 071°52'613.1
2018-Feb-18 11:30S 32°59' W 071°52'612.7
2018-Feb-18 11:00S 33°05' W 071°51'6 0.3
2018-Feb-17 12:45S 32°59' W 071°50'718.7
2018-Feb-17 12:22S 32°52' W 071°52'718.9
2018-Feb-17 12:00S 32°45' W 071°53'  

Dump ship's entire track history